createdAt,value
2022-10-18T00:00:14.560Z,75.16
2022-10-18T00:04:17.687Z,75.17
2022-10-18T00:08:22.606Z,75.44
2022-10-18T00:12:34.391Z,75.59
2022-10-18T00:16:37.465Z,76.20
2022-10-18T00:20:41.063Z,76.19
2022-10-18T00:24:45.628Z,75.71
2022-10-18T00:28:52.953Z,75.33
2022-10-18T00:32:56.713Z,75.24
2022-10-18T00:36:59.861Z,75.89
2022-10-18T00:41:05.072Z,76.07
2022-10-18T00:45:20.455Z,76.57
2022-10-18T00:49:29.039Z,76.60
2022-10-18T00:53:32.211Z,76.82
2022-10-18T00:57:38.264Z,76.98
2022-10-18T01:01:41.812Z,77.17
2022-10-18T01:05:48.961Z,77.65
2022-10-18T01:10:00.551Z,77.52
2022-10-18T01:14:14.482Z,77.48
2022-10-18T01:18:25.537Z,77.15
2022-10-18T01:22:33.123Z,76.26
2022-10-18T01:26:54.247Z,74.68
2022-10-18T01:31:01.753Z,73.86
2022-10-18T01:35:09.762Z,73.90
2022-10-18T01:39:17.002Z,73.88
2022-10-18T01:43:22.953Z,74.32
2022-10-18T01:47:29.953Z,74.61
2022-10-18T01:51:34.571Z,74.57
2022-10-18T01:55:45.301Z,74.65
2022-10-18T01:59:56.059Z,74.88
2022-10-18T02:04:09.958Z,75.28
2022-10-18T02:08:24.009Z,75.42
2022-10-18T02:12:30.573Z,75.82
2022-10-18T02:16:39.451Z,76.31
2022-10-18T02:20:44.149Z,76.58
2022-10-18T02:24:50.870Z,76.65
2022-10-18T02:28:54.153Z,76.68
2022-10-18T02:33:02.912Z,76.70
2022-10-18T02:37:07.344Z,76.02
2022-10-18T02:41:10.900Z,76.41
2022-10-18T02:45:15.305Z,75.85
2022-10-18T02:49:18.979Z,75.93
2022-10-18T02:53:23.885Z,75.79
2022-10-18T02:57:27.319Z,75.77
2022-10-18T03:01:30.379Z,75.60
2022-10-18T03:05:33.882Z,75.92
2022-10-18T03:09:38.791Z,75.29
2022-10-18T03:13:42.288Z,74.87
2022-10-18T03:17:45.241Z,74.70
2022-10-18T03:21:48.777Z,74.44
2022-10-18T03:25:53.396Z,74.24
2022-10-18T03:29:57.204Z,74.61
2022-10-18T03:34:00.242Z,74.20
2022-10-18T03:38:03.749Z,74.26
2022-10-18T03:42:08.040Z,74.29
2022-10-18T03:46:11.504Z,74.32
2022-10-18T03:50:14.982Z,74.37
2022-10-18T03:54:18.268Z,74.54
2022-10-18T03:58:24.078Z,74.24
2022-10-18T04:02:27.808Z,74.40
2022-10-18T04:06:30.773Z,74.65
2022-10-18T04:10:34.615Z,74.53
2022-10-18T04:14:39.569Z,74.53
2022-10-18T04:18:43.000Z,74.61
2022-10-18T04:22:46.318Z,74.46
2022-10-18T04:26:49.336Z,74.57
2022-10-18T04:30:55.133Z,74.97
2022-10-18T04:34:58.110Z,74.82
2022-10-18T04:39:01.486Z,75.02
2022-10-18T04:43:04.598Z,74.85
2022-10-18T04:47:09.496Z,74.96
2022-10-18T04:51:12.525Z,74.96
2022-10-18T04:55:15.974Z,74.75
2022-10-18T04:59:19.139Z,74.93
2022-10-18T05:03:24.083Z,75.16
2022-10-18T05:07:29.845Z,74.89
2022-10-18T05:11:33.380Z,75.09
2022-10-18T05:15:36.442Z,75.05
2022-10-18T05:19:41.341Z,75.27
2022-10-18T05:23:45.026Z,74.90
2022-10-18T05:27:48.003Z,75.37
2022-10-18T05:31:51.851Z,75.25
2022-10-18T05:35:56.599Z,74.84
2022-10-18T05:39:59.703Z,75.07
2022-10-18T05:44:06.780Z,74.76
2022-10-18T05:52:14.432Z,74.92
2022-10-18T05:56:17.669Z,74.96
2022-10-18T06:00:21.272Z,75.07
2022-10-18T06:04:24.576Z,74.74
2022-10-18T06:08:29.531Z,74.79
2022-10-18T06:12:32.527Z,74.76
2022-10-18T06:20:40.677Z,75.07
2022-10-18T06:24:45.512Z,74.94
2022-10-18T06:28:48.934Z,75.20
2022-10-18T06:32:52.488Z,74.99
2022-10-18T06:36:56.701Z,74.94
2022-10-18T06:41:04.136Z,75.20
2022-10-18T06:45:08.813Z,74.87
2022-10-18T06:49:14.063Z,74.67
2022-10-18T06:53:18.784Z,74.37
2022-10-18T06:57:23.189Z,73.25
2022-10-18T07:01:27.213Z,73.54
2022-10-18T07:05:30.904Z,74.03
2022-10-18T07:09:34.179Z,74.04
2022-10-18T07:13:39.055Z,73.78
2022-10-18T07:17:42.939Z,73.96
2022-10-18T07:21:45.911Z,73.08
2022-10-18T07:25:49.724Z,72.17
2022-10-18T07:29:54.722Z,71.88
2022-10-18T07:33:57.920Z,72.62
2022-10-18T07:38:01.502Z,72.22
2022-10-18T07:42:05.880Z,72.90
2022-10-18T07:46:10.515Z,72.15
2022-10-18T07:50:14.198Z,71.74
2022-10-18T07:54:18.019Z,72.26
2022-10-18T07:58:21.269Z,71.01
2022-10-18T08:02:26.220Z,70.42
2022-10-18T08:06:29.825Z,70.58
2022-10-18T08:10:32.887Z,70.29
2022-10-18T08:14:36.355Z,70.47
2022-10-18T08:18:42.014Z,70.00
2022-10-18T08:22:45.039Z,70.24
2022-10-18T08:26:50.605Z,69.59
2022-10-18T08:30:54.151Z,69.55
2022-10-18T08:34:58.732Z,70.01
2022-10-18T08:39:03.367Z,69.89
2022-10-18T08:43:10.489Z,69.00
2022-10-18T08:47:16.080Z,68.33
2022-10-18T08:51:33.170Z,69.38
2022-10-18T08:55:41.521Z,69.06
2022-10-18T08:59:46.259Z,67.18
2022-10-18T09:04:06.466Z,67.23
2022-10-18T09:08:29.127Z,68.31
2022-10-18T09:12:47.236Z,66.39
2022-10-18T09:17:04.336Z,65.96
2022-10-18T09:21:20.570Z,66.06
2022-10-18T09:25:28.614Z,66.72
2022-10-18T09:29:44.519Z,67.14
2022-10-18T09:33:55.247Z,65.69
2022-10-18T09:38:05.164Z,66.29
2022-10-18T09:42:21.259Z,63.59
2022-10-18T09:46:29.647Z,61.80
2022-10-18T09:50:40.088Z,61.69
2022-10-18T09:54:48.062Z,60.04
2022-10-18T09:58:53.330Z,58.60
2022-10-18T10:02:56.929Z,58.59
2022-10-18T10:07:03.149Z,57.75
2022-10-18T10:11:06.451Z,57.08
2022-10-18T10:15:21.078Z,58.74
2022-10-18T10:19:28.932Z,56.37
2022-10-18T10:23:38.086Z,56.79
2022-10-18T10:27:45.759Z,56.23
2022-10-18T10:32:04.526Z,57.20
2022-10-18T10:36:19.378Z,56.71
2022-10-18T10:40:27.814Z,53.59
2022-10-18T10:44:35.336Z,53.75
2022-10-18T10:48:48.454Z,56.88
2022-10-18T10:52:52.074Z,52.88
2022-10-18T10:57:01.836Z,54.12
2022-10-18T11:01:24.528Z,56.38
2022-10-18T11:05:29.938Z,60.31
2022-10-18T11:09:59.752Z,56.96
2022-10-18T11:18:35.293Z,53.99
2022-10-18T11:22:45.728Z,53.51
2022-10-18T11:26:54.650Z,53.22
2022-10-18T11:31:13.793Z,51.71
2022-10-18T11:35:31.044Z,53.58
2022-10-18T11:39:48.647Z,53.09
2022-10-18T11:44:02.619Z,52.14
2022-10-18T11:52:22.981Z,49.97
2022-10-18T11:56:37.036Z,51.64
2022-10-18T12:00:49.584Z,51.12
2022-10-18T12:05:22.133Z,56.71
2022-10-18T12:09:26.198Z,51.98
2022-10-18T12:13:38.172Z,51.08
2022-10-18T12:17:50.144Z,49.34
2022-10-18T12:21:54.527Z,47.87
2022-10-18T12:26:02.791Z,49.06
2022-10-18T12:30:16.022Z,49.23
2022-10-18T12:34:33.530Z,50.65
2022-10-18T12:38:39.137Z,47.67
2022-10-18T12:42:44.607Z,48.31
2022-10-18T12:46:52.524Z,48.29
2022-10-18T12:51:01.077Z,49.21
2022-10-18T12:55:30.289Z,50.49
2022-10-18T12:59:51.294Z,52.35
2022-10-18T13:03:59.193Z,48.19
2022-10-18T13:08:23.080Z,49.79
2022-10-18T13:13:05.029Z,52.06
2022-10-18T13:17:30.853Z,49.23
2022-10-18T13:21:45.441Z,50.71
2022-10-18T13:26:00.065Z,49.83
2022-10-18T13:30:29.115Z,50.70
2022-10-18T13:34:37.828Z,47.42
2022-10-18T13:38:48.581Z,48.85
2022-10-18T13:42:51.854Z,48.71
2022-10-18T13:47:14.404Z,51.34
2022-10-18T13:51:36.879Z,52.34
2022-10-18T13:56:04.139Z,51.57
2022-10-18T14:00:26.670Z,52.37
2022-10-18T14:04:47.917Z,51.05
2022-10-18T14:09:03.201Z,50.88
2022-10-18T14:13:21.554Z,51.19
2022-10-18T14:17:32.017Z,50.37
2022-10-18T14:21:39.731Z,50.12
2022-10-18T14:25:43.581Z,50.14
2022-10-18T14:29:49.219Z,49.72
2022-10-18T14:33:57.952Z,51.70
2022-10-18T14:38:02.580Z,51.74
2022-10-18T14:42:05.601Z,52.64
2022-10-18T14:46:20.145Z,54.51
2022-10-18T14:50:30.251Z,53.69
2022-10-18T14:54:38.097Z,54.03
2022-10-18T14:58:43.059Z,53.78
2022-10-18T15:02:48.051Z,54.26
2022-10-18T15:06:51.077Z,55.12
2022-10-18T15:10:55.309Z,56.37
2022-10-18T15:15:01.839Z,57.19
2022-10-18T15:19:08.646Z,56.97
2022-10-18T15:23:25.029Z,56.05
2022-10-18T15:27:33.217Z,56.21
2022-10-18T15:31:38.881Z,57.56
2022-10-18T15:35:43.685Z,57.78
2022-10-18T15:39:47.197Z,57.78
2022-10-18T15:43:50.738Z,59.71
2022-10-18T15:48:18.629Z,59.84
2022-10-18T15:52:45.817Z,60.30
2022-10-18T15:56:49.318Z,61.06
2022-10-18T16:00:54.400Z,60.73
2022-10-18T16:04:59.812Z,61.90
2022-10-18T16:09:05.502Z,62.19
2022-10-18T16:13:08.627Z,62.81
2022-10-18T16:17:17.602Z,63.46
2022-10-18T16:21:22.793Z,63.78
2022-10-18T16:25:27.320Z,64.72
2022-10-18T16:29:32.725Z,64.99
2022-10-18T16:33:36.955Z,65.24
2022-10-18T16:37:40.535Z,65.38
2022-10-18T16:41:45.483Z,65.38
2022-10-18T16:45:48.736Z,66.15
2022-10-18T16:49:52.183Z,66.72
2022-10-18T16:53:56.462Z,66.44
2022-10-18T16:58:01.603Z,66.90
2022-10-18T17:02:09.136Z,67.52
2022-10-18T17:06:17.433Z,67.64
2022-10-18T17:10:24.817Z,68.20
2022-10-18T17:14:29.299Z,68.06
2022-10-18T17:18:33.323Z,68.16
2022-10-18T17:22:36.607Z,68.20
2022-10-18T17:26:40.410Z,68.52
2022-10-18T17:30:45.625Z,69.25
2022-10-18T17:34:49.044Z,69.68
2022-10-18T17:38:52.871Z,69.91
2022-10-18T17:42:56.411Z,69.88
2022-10-18T17:47:00.930Z,70.33
2022-10-18T17:51:09.743Z,70.60
2022-10-18T17:55:16.160Z,71.06
2022-10-18T18:03:31.714Z,71.18
2022-10-18T18:07:35.377Z,71.17
2022-10-18T18:11:40.940Z,71.24
2022-10-18T18:15:44.134Z,71.18
2022-10-18T18:19:49.562Z,70.97
2022-10-18T18:23:53.309Z,70.52
2022-10-18T18:27:56.913Z,70.25
2022-10-18T18:32:00.773Z,69.78
2022-10-18T18:36:09.689Z,68.85
2022-10-18T18:40:13.698Z,68.61
2022-10-18T18:44:19.673Z,68.94
2022-10-18T18:48:23.513Z,68.76
2022-10-18T18:52:28.137Z,69.11
2022-10-18T18:56:31.929Z,69.43
2022-10-18T19:00:38.135Z,69.44
2022-10-18T19:04:47.652Z,69.95
2022-10-18T19:08:55.245Z,70.57
2022-10-18T19:12:58.376Z,70.44
2022-10-18T19:17:02.225Z,70.63
2022-10-18T19:21:06.944Z,70.57
2022-10-18T19:25:12.211Z,70.45
2022-10-18T19:29:18.347Z,70.42
2022-10-18T19:33:35.588Z,70.33
2022-10-18T19:37:45.926Z,70.51
2022-10-18T19:41:52.088Z,71.08
2022-10-18T19:45:55.761Z,71.24
2022-10-18T19:49:59.915Z,71.03
2022-10-18T19:54:03.371Z,70.96
2022-10-18T19:58:09.787Z,71.04
2022-10-18T20:02:15.618Z,71.49
2022-10-18T20:06:19.552Z,71.55
2022-10-18T20:10:23.269Z,71.47
2022-10-18T20:14:28.017Z,71.58
2022-10-18T20:18:31.507Z,71.87
2022-10-18T20:22:34.741Z,72.07
2022-10-18T20:26:38.728Z,72.13
2022-10-18T20:30:43.427Z,72.86
2022-10-18T20:34:46.483Z,72.83
2022-10-18T20:38:50.589Z,72.87
2022-10-18T20:42:54.450Z,72.75
2022-10-18T20:46:58.842Z,72.67
2022-10-18T20:51:04.960Z,72.55
2022-10-18T20:55:09.187Z,72.43
2022-10-18T20:59:12.339Z,72.18
2022-10-18T21:03:17.254Z,72.10
2022-10-18T21:07:20.782Z,71.91
2022-10-18T21:11:25.014Z,71.48
2022-10-18T21:15:28.231Z,71.13
2022-10-18T21:19:33.419Z,71.17
2022-10-18T21:23:36.973Z,71.68
2022-10-18T21:27:40.683Z,71.53
2022-10-18T21:31:46.680Z,71.42
2022-10-18T21:35:51.783Z,71.63
2022-10-18T21:39:55.574Z,71.43
2022-10-18T21:43:58.583Z,71.60
2022-10-18T21:48:01.992Z,71.64
2022-10-18T21:52:07.126Z,71.67
2022-10-18T21:56:12.846Z,71.92
2022-10-18T22:00:17.675Z,72.02
2022-10-18T22:04:23.235Z,72.06
2022-10-18T22:08:27.829Z,72.18
2022-10-18T22:12:31.495Z,72.30
2022-10-18T22:16:36.082Z,72.09
2022-10-18T22:20:39.048Z,72.24
2022-10-18T22:24:43.397Z,72.07
2022-10-18T22:28:47.653Z,72.14
2022-10-18T22:32:51.020Z,72.25
2022-10-18T22:36:55.490Z,72.12
